Time;durP1;ratioP1;P1;durP2;ratioP2;P2;SDS_P1;SDS_P2;PMS_P1;PMS_P2;Temp;Humidity;BMP_temperature;BMP_pressure;BME280_temperature;BME280_humidity;BME280_pressure;Samples;Min_cycle;Max_cycle;Signal;HPM_P1;HPM_P2
2023/08/06 00:02:20;;;;;;;10.40;5.05;;;15.70;99.90;;;;;;4996030;28;20080;-86
2023/08/06 00:04:46;;;;;;;11.25;8.77;;;15.60;99.90;;;;;;4995730;28;20045;-87
2023/08/06 00:07:11;;;;;;;12.23;8.35;;;15.60;99.90;;;;;;4979474;28;20072;-87
2023/08/06 00:09:37;;;;;;;8.90;4.68;;;15.70;99.90;;;;;;4995806;28;20046;-87
2023/08/06 00:12:03;;;;;;;11.45;8.05;;;15.60;99.90;;;;;;4996181;28;20037;-86
2023/08/06 00:14:28;;;;;;;9.43;4.95;;;15.60;99.90;;;;;;4995863;28;20041;-87
2023/08/06 00:16:54;;;;;;;11.60;8.20;;;15.60;99.90;;;;;;4995506;28;20128;-87
2023/08/06 00:19:19;;;;;;;8.95;4.72;;;15.60;99.90;;;;;;4995626;28;20041;-87
2023/08/06 00:21:45;;;;;;;10.27;4.88;;;15.60;99.90;;;;;;4979237;28;20098;-87
2023/08/06 00:24:11;;;;;;;11.88;7.90;;;15.60;99.90;;;;;;4995050;28;20045;-87
2023/08/06 00:26:36;;;;;;;10.70;8.02;;;15.60;99.90;;;;;;4978593;28;20127;-86
2023/08/06 00:29:02;;;;;;;12.25;7.78;;;15.60;99.90;;;;;;4995381;28;20117;-87
2023/08/06 00:31:27;;;;;;;8.70;4.60;;;15.60;99.90;;;;;;4995640;28;20061;-86
2023/08/06 00:33:53;;;;;;;8.80;4.40;;;15.60;99.90;;;;;;4978800;28;20041;-86
2023/08/06 00:36:19;;;;;;;10.38;7.65;;;15.50;99.90;;;;;;4978474;28;20058;-86
2023/08/06 00:38:44;;;;;;;7.90;3.85;;;15.60;99.90;;;;;;4995212;28;20052;-87
2023/08/06 00:41:10;;;;;;;10.02;7.18;;;15.50;99.90;;;;;;4995559;28;20108;-86
2023/08/06 00:43:36;;;;;;;8.05;3.92;;;15.50;99.90;;;;;;4995504;28;20053;-87
2023/08/06 00:46:02;;;;;;;9.50;5.05;;;15.60;99.90;;;;;;4978865;28;20545;-86
2023/08/06 00:48:27;;;;;;;11.05;6.78;;;15.50;99.90;;;;;;4994702;28;20044;-87
2023/08/06 00:50:53;;;;;;;10.98;4.90;;;15.50;99.90;;;;;;4994791;28;20037;-87
2023/08/06 00:53:19;;;;;;;10.23;7.60;;;15.50;99.90;;;;;;4995052;28;20060;-86
2023/08/06 00:55:45;;;;;;;11.60;7.65;;;15.50;99.90;;;;;;5012588;28;20108;-86
2023/08/06 00:58:11;;;;;;;9.75;4.65;;;15.50;99.90;;;;;;4978583;28;20042;-86
2023/08/06 01:00:37;;;;;;;11.10;7.47;;;15.50;99.90;;;;;;4978797;28;20129;-86
2023/08/06 01:03:03;;;;;;;10.93;7.45;;;15.50;99.90;;;;;;4978740;28;20048;-86
2023/08/06 01:05:29;;;;;;;9.07;4.70;;;15.50;99.90;;;;;;4994961;28;20042;-86
2023/08/06 01:08:04;;;;;;;9.43;4.82;;;15.50;99.90;;;;;;4994669;28;20088;-86
2023/08/06 01:11:02;;;;;;;11.00;7.82;;;15.40;99.90;;;;;;4995176;28;20132;-87
2023/08/06 01:13:49;;;;;;;8.70;4.35;;;15.50;99.90;;;;;;4968025;28;20054;-83
2023/08/06 01:16:20;;;;;;;10.98;5.13;;;15.40;99.90;;;;;;4995420;28;20049;-86
2023/08/06 01:18:49;;;;;;;14.07;8.57;;;15.30;99.90;;;;;;4994752;28;20133;-85
2023/08/06 01:21:18;;;;;;;11.18;5.68;;;15.40;99.90;;;;;;4978360;28;20073;-86
2023/08/06 01:23:45;;;;;;;11.20;7.68;;;15.40;99.90;;;;;;4978495;28;20042;-85
2023/08/06 01:26:17;;;;;;;10.73;7.97;;;15.40;99.90;;;;;;4994021;28;20406;-85
2023/08/06 01:28:59;;;;;;;9.50;4.97;;;15.40;99.90;;;;;;4978423;28;20081;-86
2023/08/06 01:31:30;;;;;;;9.55;7.72;;;15.40;99.90;;;;;;4994351;28;20038;-85
2023/08/06 01:33:57;;;;;;;11.45;8.30;;;15.40;99.90;;;;;;4994498;28;20078;-86
2023/08/06 01:36:23;;;;;;;11.57;7.43;;;15.40;99.90;;;;;;4977323;28;20129;-85
2023/08/06 01:38:54;;;;;;;10.27;5.22;;;15.50;99.90;;;;;;4994258;28;20129;-86
2023/08/06 01:41:19;;;;;;;8.88;4.30;;;15.40;99.90;;;;;;4977983;28;20048;-86
2023/08/06 01:43:45;;;;;;;11.25;8.23;;;15.40;99.90;;;;;;4978114;28;20045;-86
2023/08/06 01:46:11;;;;;;;12.07;8.38;;;15.40;99.90;;;;;;4978065;28;20419;-86
2023/08/06 01:48:36;;;;;;;10.18;7.55;;;15.40;99.90;;;;;;4977730;28;20125;-86
2023/08/06 01:51:05;;;;;;;11.57;8.57;;;15.50;99.90;;;;;;4978154;28;20033;-85
2023/08/06 01:53:31;;;;;;;9.95;3.88;;;15.50;99.90;;;;;;4994191;28;20518;-86
2023/08/06 01:55:57;;;;;;;12.82;7.45;;;15.40;99.90;;;;;;4994230;28;20549;-86
2023/08/06 01:58:23;;;;;;;9.80;7.30;;;15.40;99.90;;;;;;4994042;28;20046;-86
2023/08/06 02:00:48;;;;;;;10.68;4.50;;;15.40;99.90;;;;;;4994310;28;20042;-86
2023/08/06 02:03:14;;;;;;;7.93;4.40;;;15.40;99.90;;;;;;4993959;28;20049;-86
2023/08/06 02:05:40;;;;;;;10.77;7.90;;;15.30;99.90;;;;;;4993998;28;20050;-86
2023/08/06 02:08:06;;;;;;;11.57;7.70;;;15.40;99.90;;;;;;4993799;28;20048;-86
2023/08/06 02:10:32;;;;;;;11.85;5.20;;;15.40;99.90;;;;;;4994166;28;20038;-86
2023/08/06 02:12:58;;;;;;;10.25;7.90;;;15.40;99.90;;;;;;4977838;28;20088;-85
2023/08/06 02:15:23;;;;;;;12.48;8.30;;;15.40;99.90;;;;;;4978156;28;20537;-86
2023/08/06 02:17:49;;;;;;;9.00;4.35;;;15.40;99.90;;;;;;4993905;28;20050;-86
2023/08/06 02:20:14;;;;;;;8.80;5.10;;;15.30;99.90;;;;;;4978040;28;20503;-85
2023/08/06 02:22:40;;;;;;;12.40;8.63;;;15.30;99.90;;;;;;4994168;28;20057;-86
2023/08/06 02:25:06;;;;;;;9.07;4.40;;;15.30;99.90;;;;;;4993949;28;20050;-86
2023/08/06 02:27:31;;;;;;;12.13;8.90;;;15.30;99.90;;;;;;4977549;28;20662;-86
2023/08/06 02:29:57;;;;;;;12.10;8.73;;;15.40;99.90;;;;;;4993893;28;20041;-86
2023/08/06 02:32:23;;;;;;;10.68;5.25;;;15.40;99.90;;;;;;4977653;28;20038;-86
2023/08/06 02:34:48;;;;;;;9.77;5.03;;;15.40;99.90;;;;;;4977046;28;20042;-85
2023/08/06 02:37:14;;;;;;;10.60;8.00;;;15.30;99.90;;;;;;4977495;28;20470;-85
2023/08/06 02:39:40;;;;;;;11.18;5.28;;;15.40;99.90;;;;;;4993881;28;20034;-86
2023/08/06 02:42:09;;;;;;;10.63;5.93;;;15.40;99.90;;;;;;4993723;28;20542;-86
2023/08/06 02:44:35;;;;;;;9.43;5.47;;;15.30;99.90;;;;;;4993742;28;20576;-86
2023/08/06 02:47:01;;;;;;;12.35;9.85;;;15.30;99.90;;;;;;4994205;28;20045;-85
2023/08/06 02:49:27;;;;;;;10.40;8.75;;;15.30;99.90;;;;;;4997342;28;20415;-85
2023/08/06 02:51:52;;;;;;;10.82;9.10;;;15.40;99.90;;;;;;4997429;28;20037;-86
2023/08/06 02:54:18;;;;;;;11.57;8.98;;;15.40;99.90;;;;;;4997435;28;20094;-85
2023/08/06 02:56:44;;;;;;;11.82;9.60;;;15.40;99.90;;;;;;4981022;28;20037;-86
2023/08/06 02:59:11;;;;;;;12.10;9.40;;;15.40;99.90;;;;;;4981328;28;20046;-85
2023/08/06 03:01:36;;;;;;;10.43;4.85;;;15.40;99.90;;;;;;4981141;28;20164;-86
2023/08/06 03:04:03;;;;;;;10.27;5.80;;;15.40;99.90;;;;;;4997184;28;20515;-85
2023/08/06 03:06:29;;;;;;;11.68;6.05;;;15.30;99.90;;;;;;4980655;28;20124;-85
2023/08/06 03:08:55;;;;;;;11.85;9.23;;;15.20;99.90;;;;;;4980123;28;20124;-86
2023/08/06 03:11:20;;;;;;;9.98;5.32;;;15.30;99.90;;;;;;4981081;28;20065;-86
2023/08/06 03:13:47;;;;;;;9.25;4.97;;;15.20;99.90;;;;;;4997184;28;20073;-85
2023/08/06 03:16:13;;;;;;;11.05;9.60;;;15.20;99.90;;;;;;4996900;28;20045;-86
2023/08/06 03:18:39;;;;;;;12.85;9.80;;;15.20;99.90;;;;;;4980367;28;20038;-85
2023/08/06 03:21:04;;;;;;;14.30;5.18;;;15.20;99.90;;;;;;4996936;28;20048;-86
2023/08/06 03:23:30;;;;;;;9.73;5.68;;;15.20;99.90;;;;;;4996915;28;20048;-86
2023/08/06 03:25:55;;;;;;;11.75;9.20;;;15.10;99.90;;;;;;4996245;28;20096;-87
2023/08/06 03:28:22;;;;;;;9.80;5.78;;;15.20;99.90;;;;;;4995952;28;20068;-86
2023/08/06 03:30:47;;;;;;;10.15;6.13;;;15.10;99.90;;;;;;4996424;28;20090;-86
2023/08/06 03:33:13;;;;;;;13.10;10.07;;;15.10;99.90;;;;;;4996286;28;20069;-86
2023/08/06 03:35:39;;;;;;;11.75;10.25;;;15.10;99.90;;;;;;4980713;28;20084;-86
2023/08/06 03:38:05;;;;;;;12.90;9.40;;;15.20;99.90;;;;;;4996254;28;20507;-86
2023/08/06 03:40:30;;;;;;;11.50;9.02;;;15.20;99.90;;;;;;4996672;28;20442;-86
2023/08/06 03:42:56;;;;;;;11.75;9.38;;;15.20;99.90;;;;;;4996603;28;20416;-86
2023/08/06 03:45:22;;;;;;;18.73;4.72;;;15.20;99.90;;;;;;4980109;28;20037;-86
2023/08/06 03:47:47;;;;;;;13.43;8.90;;;15.10;99.90;;;;;;4996166;28;20139;-86
2023/08/06 03:50:13;;;;;;;10.43;5.35;;;15.20;99.90;;;;;;4980140;28;20059;-86
2023/08/06 03:52:39;;;;;;;10.77;5.13;;;15.10;99.90;;;;;;4996493;28;20034;-86
2023/08/06 03:55:04;;;;;;;10.65;8.75;;;15.10;99.90;;;;;;4996575;28;20116;-86
2023/08/06 03:57:30;;;;;;;10.00;5.70;;;15.10;99.90;;;;;;4995938;28;20073;-86
2023/08/06 03:59:56;;;;;;;11.02;9.55;;;15.10;99.90;;;;;;4979646;28;20132;-86
2023/08/06 04:02:22;;;;;;;9.95;5.22;;;15.20;99.90;;;;;;4996026;28;20471;-86
2023/08/06 04:04:47;;;;;;;10.43;9.05;;;15.10;99.90;;;;;;4979632;28;20042;-86
2023/08/06 04:07:13;;;;;;;11.93;6.18;;;15.20;99.90;;;;;;4979513;28;20037;-86
2023/08/06 04:09:53;;;;;;;11.80;10.50;;;15.20;99.90;;;;;;4996052;28;20099;-86
2023/08/06 04:12:18;;;;;;;10.45;5.45;;;15.20;99.90;;;;;;5012480;28;20048;-86
2023/08/06 04:14:44;;;;;;;10.95;9.68;;;15.10;99.90;;;;;;4995706;28;20050;-86
2023/08/06 04:17:09;;;;;;;11.20;6.07;;;15.20;99.90;;;;;;4995818;28;20099;-86
2023/08/06 04:19:35;;;;;;;13.20;11.23;;;15.10;99.90;;;;;;4996116;28;20046;-86
2023/08/06 04:22:01;;;;;;;11.27;9.35;;;15.20;99.90;;;;;;4995976;28;20053;-86
2023/08/06 04:24:26;;;;;;;10.35;5.63;;;15.20;99.90;;;;;;4979542;28;20502;-86
2023/08/06 04:26:52;;;;;;;10.85;6.70;;;15.20;99.90;;;;;;4995347;28;20170;-86
2023/08/06 04:29:17;;;;;;;13.27;11.45;;;15.10;99.90;;;;;;5013008;28;20051;-87
2023/08/06 04:31:43;;;;;;;10.20;5.80;;;15.10;99.90;;;;;;4978880;28;20041;-86
2023/08/06 04:34:09;;;;;;;13.15;11.13;;;15.10;99.90;;;;;;4994721;28;20030;-86
2023/08/06 04:36:34;;;;;;;12.27;10.55;;;15.20;99.90;;;;;;4995121;28;20084;-86
2023/08/06 04:39:00;;;;;;;11.98;10.15;;;15.20;99.90;;;;;;5011689;28;20073;-86
2023/08/06 04:41:25;;;;;;;11.60;10.25;;;15.20;99.90;;;;;;5011739;28;20124;-86
2023/08/06 04:43:51;;;;;;;12.35;11.05;;;15.20;99.90;;;;;;5011611;28;20511;-86
2023/08/06 04:46:16;;;;;;;9.55;5.40;;;15.30;99.90;;;;;;4979011;28;20038;-86
2023/08/06 04:48:42;;;;;;;11.18;7.05;;;15.20;99.90;;;;;;4994920;28;20034;-86
2023/08/06 04:51:08;;;;;;;13.77;10.30;;;15.20;99.90;;;;;;4979300;28;20041;-86
2023/08/06 04:53:33;;;;;;;12.52;11.15;;;15.20;99.90;;;;;;5011519;28;20030;-86
2023/08/06 04:55:59;;;;;;;10.63;5.53;;;15.30;99.90;;;;;;5011687;28;20095;-86
2023/08/06 04:58:24;;;;;;;13.00;11.68;;;15.30;99.90;;;;;;4994723;28;20511;-86
2023/08/06 05:00:50;;;;;;;11.63;6.53;;;15.30;99.90;;;;;;5011699;28;20092;-86
2023/08/06 05:03:15;;;;;;;13.05;11.07;;;15.30;99.90;;;;;;4994891;28;20046;-86
2023/08/06 05:05:41;;;;;;;9.57;5.15;;;15.30;99.90;;;;;;4994920;28;20050;-86
2023/08/06 05:08:07;;;;;;;13.10;11.80;;;15.30;99.90;;;;;;4978252;28;20046;-86
2023/08/06 05:10:32;;;;;;;10.63;6.50;;;15.40;99.90;;;;;;4993586;28;20049;-86
2023/08/06 05:12:58;;;;;;;13.25;7.82;;;15.40;99.90;;;;;;4994489;28;20559;-86
2023/08/06 05:15:25;;;;;;;13.32;8.18;;;15.40;99.90;;;;;;4978656;28;20087;-86
2023/08/06 05:17:50;;;;;;;13.30;11.90;;;15.40;99.90;;;;;;4977999;28;20041;-86
2023/08/06 05:20:17;;;;;;;11.55;8.13;;;15.50;99.90;;;;;;4994766;28;20038;-86
2023/08/06 05:22:43;;;;;;;12.60;7.30;;;15.50;99.90;;;;;;4995212;28;20045;-86
2023/08/06 05:25:09;;;;;;;14.27;12.88;;;15.40;99.90;;;;;;4994749;28;20042;-86
2023/08/06 05:27:34;;;;;;;14.20;12.80;;;15.50;99.90;;;;;;5010242;28;20049;-86
2023/08/06 05:30:00;;;;;;;13.68;12.27;;;15.60;99.90;;;;;;4975233;28;20044;-86
2023/08/06 05:32:25;;;;;;;15.45;13.15;;;15.60;99.90;;;;;;5009732;28;20034;-86
2023/08/06 05:34:51;;;;;;;13.98;8.75;;;15.70;99.90;;;;;;4993044;28;20046;-86
2023/08/06 05:37:17;;;;;;;13.10;8.35;;;15.60;99.90;;;;;;4992590;28;20046;-86
2023/08/06 05:39:42;;;;;;;16.17;14.48;;;15.60;99.90;;;;;;4977397;28;20053;-86
2023/08/06 05:42:08;;;;;;;17.67;15.88;;;15.60;99.90;;;;;;5009259;28;20100;-85
2023/08/06 05:44:33;;;;;;;13.70;8.63;;;15.70;99.90;;;;;;4976964;28;20044;-86
2023/08/06 05:46:59;;;;;;;18.08;16.38;;;15.60;99.90;;;;;;4993052;28;20080;-86
2023/08/06 05:49:25;;;;;;;16.55;11.93;;;15.60;99.90;;;;;;5010283;28;20502;-86
2023/08/06 05:51:53;;;;;;;22.67;20.40;;;15.60;99.90;;;;;;4993610;28;20037;-85
2023/08/06 05:54:18;;;;;;;18.90;11.63;;;15.60;99.90;;;;;;4993444;28;20104;-86
2023/08/06 05:56:44;;;;;;;25.00;22.73;;;15.60;99.90;;;;;;4976312;28;20612;-87
2023/08/06 05:59:09;;;;;;;24.95;22.58;;;15.70;99.90;;;;;;5009673;28;20392;-87
2023/08/06 06:01:35;;;;;;;17.67;12.38;;;15.70;99.90;;;;;;4977233;28;20045;-87
2023/08/06 06:04:01;;;;;;;24.98;22.67;;;15.70;99.90;;;;;;5009734;28;20038;-87
2023/08/06 06:06:26;;;;;;;24.98;22.52;;;15.70;99.90;;;;;;4992712;28;20487;-87
2023/08/06 06:08:52;;;;;;;25.10;22.60;;;15.80;99.90;;;;;;4992922;28;20041;-87
2023/08/06 06:11:21;;;;;;;25.35;23.05;;;15.80;99.90;;;;;;4992976;28;20052;-87
2023/08/06 06:13:48;;;;;;;18.02;12.45;;;15.90;99.90;;;;;;4993004;28;20042;-87
2023/08/06 06:16:13;;;;;;;24.65;22.30;;;15.80;99.90;;;;;;4993242;28;20096;-87
2023/08/06 06:18:39;;;;;;;17.10;11.93;;;15.90;99.90;;;;;;5009654;28;20042;-87
2023/08/06 06:21:04;;;;;;;18.83;13.35;;;15.90;99.90;;;;;;4992848;28;20076;-87
2023/08/06 06:23:30;;;;;;;21.60;19.50;;;15.90;99.90;;;;;;5012935;28;20041;-87
2023/08/06 06:25:55;;;;;;;14.98;10.35;;;15.90;99.90;;;;;;5010422;28;20113;-86
2023/08/06 06:28:21;;;;;;;21.08;18.75;;;15.90;99.90;;;;;;4967631;28;20508;-86
2023/08/06 06:30:48;;;;;;;18.90;11.93;;;15.90;99.90;;;;;;4961162;28;20060;-86
2023/08/06 06:33:13;;;;;;;19.23;17.23;;;16.00;99.90;;;;;;4985585;28;20085;-87
2023/08/06 06:35:40;;;;;;;19.67;17.33;;;16.00;99.90;;;;;;4970955;28;20033;-87
2023/08/06 06:38:05;;;;;;;18.40;16.55;;;16.10;99.90;;;;;;4971183;28;20038;-86
2023/08/06 06:40:32;;;;;;;13.85;9.35;;;16.10;99.90;;;;;;5003307;28;20045;-87
2023/08/06 06:42:58;;;;;;;19.73;17.83;;;16.10;99.90;;;;;;4971007;28;20038;-87
2023/08/06 06:45:23;;;;;;;16.92;9.77;;;16.10;99.90;;;;;;5004823;28;20038;-87
2023/08/06 06:47:51;;;;;;;18.60;16.80;;;16.20;99.90;;;;;;4985974;28;20112;-87
2023/08/06 06:50:17;;;;;;;19.33;17.33;;;16.20;99.90;;;;;;4970842;28;20096;-87
2023/08/06 06:52:43;;;;;;;17.20;15.50;;;16.30;99.90;;;;;;4985785;28;20132;-86
2023/08/06 06:55:09;;;;;;;17.67;15.98;;;16.40;99.90;;;;;;5003018;28;20050;-87
2023/08/06 06:57:34;;;;;;;15.00;9.02;;;16.40;99.90;;;;;;4987000;28;20399;-87
2023/08/06 07:00:00;;;;;;;17.85;15.95;;;16.40;99.90;;;;;;4970613;28;20038;-86
2023/08/06 07:02:26;;;;;;;16.05;14.45;;;16.50;99.90;;;;;;4985864;28;20536;-86
2023/08/06 07:04:54;;;;;;;17.10;15.30;;;16.50;99.90;;;;;;4987659;28;20038;-86
2023/08/06 07:07:19;;;;;;;17.38;15.57;;;16.60;99.90;;;;;;4991628;28;20042;-86
2023/08/06 07:09:45;;;;;;;15.82;14.30;;;16.60;99.90;;;;;;4980187;28;20044;-86
2023/08/06 07:12:11;;;;;;;15.93;14.32;;;16.70;99.90;;;;;;4995633;28;20038;-86
2023/08/06 07:14:36;;;;;;;14.68;9.63;;;16.70;99.90;;;;;;4996147;28;20049;-86
2023/08/06 07:17:02;;;;;;;15.88;14.38;;;16.70;99.90;;;;;;4996232;28;20045;-86
2023/08/06 07:19:28;;;;;;;16.23;14.73;;;16.70;99.90;;;;;;4996406;28;20124;-86
2023/08/06 07:21:53;;;;;;;17.17;15.38;;;16.80;99.90;;;;;;4996199;28;20099;-86
2023/08/06 07:24:19;;;;;;;15.27;13.77;;;16.80;99.90;;;;;;4996272;28;20585;-86
2023/08/06 07:26:44;;;;;;;12.88;8.68;;;16.80;99.90;;;;;;4979728;28;20069;-86
2023/08/06 07:29:10;;;;;;;12.52;9.90;;;16.80;99.90;;;;;;4995842;28;20065;-86
2023/08/06 07:31:36;;;;;;;15.63;14.02;;;16.90;99.90;;;;;;4995190;28;20129;-86
2023/08/06 07:34:01;;;;;;;15.55;14.05;;;16.90;99.90;;;;;;4991828;28;20129;-86
2023/08/06 07:36:27;;;;;;;15.57;13.98;;;17.00;99.90;;;;;;4979594;28;20502;-86
2023/08/06 07:38:55;;;;;;;14.02;12.63;;;17.10;99.90;;;;;;4979858;28;20049;-86
2023/08/06 07:41:25;;;;;;;12.00;8.98;;;17.10;99.90;;;;;;4980457;28;20053;-86
2023/08/06 07:43:50;;;;;;;13.10;8.13;;;17.10;99.90;;;;;;4980049;28;20046;-86
2023/08/06 07:46:16;;;;;;;14.18;12.65;;;17.10;99.90;;;;;;4995825;28;20045;-86
2023/08/06 07:48:41;;;;;;;14.73;13.32;;;17.20;99.90;;;;;;4995760;28;20045;-87
2023/08/06 07:51:07;;;;;;;14.52;13.00;;;17.30;99.90;;;;;;4995256;28;20041;-85
2023/08/06 07:53:33;;;;;;;14.57;12.38;;;17.30;99.90;;;;;;4988938;28;20044;-86
2023/08/06 07:55:58;;;;;;;11.70;8.90;;;17.30;99.90;;;;;;4972679;28;20418;-86
2023/08/06 07:58:25;;;;;;;13.73;11.65;;;17.30;99.90;;;;;;4995730;28;20165;-85
2023/08/06 08:00:51;;;;;;;13.63;12.23;;;17.30;99.90;;;;;;4996150;28;20132;-86
2023/08/06 08:03:16;;;;;;;12.52;11.23;;;17.40;99.90;;;;;;4995968;28;20536;-85
2023/08/06 08:05:43;;;;;;;13.68;11.52;;;17.40;99.90;;;;;;4995350;28;20121;-86
2023/08/06 08:08:09;;;;;;;13.02;8.63;;;17.50;99.90;;;;;;4979175;28;20041;-86
2023/08/06 08:10:36;;;;;;;13.68;11.43;;;17.40;99.90;;;;;;4979491;28;20402;-86
2023/08/06 08:13:02;;;;;;;12.10;10.75;;;17.50;99.90;;;;;;4994653;28;20124;-86
2023/08/06 08:15:32;;;;;;;13.02;10.75;;;17.60;99.90;;;;;;4978728;28;20087;-86
2023/08/06 08:17:58;;;;;;;11.32;10.13;;;17.60;99.90;;;;;;4978983;28;20038;-86
2023/08/06 08:20:24;;;;;;;11.82;10.63;;;17.70;99.90;;;;;;4995191;28;20045;-86
2023/08/06 08:22:50;;;;;;;10.82;9.70;;;17.70;99.90;;;;;;4994977;28;20049;-86
2023/08/06 08:25:16;;;;;;;11.95;10.48;;;17.80;99.90;;;;;;4989971;28;20052;-86
2023/08/06 08:27:42;;;;;;;11.82;10.10;;;17.80;99.90;;;;;;4991660;28;20570;-86
2023/08/06 08:30:08;;;;;;;13.45;10.70;;;17.80;99.90;;;;;;4975292;28;20047;-86
2023/08/06 08:32:33;;;;;;;12.57;10.85;;;17.90;99.90;;;;;;4974991;28;20377;-86
2023/08/06 08:34:59;;;;;;;13.30;10.82;;;18.00;99.90;;;;;;4974886;28;20530;-86
2023/08/06 08:37:25;;;;;;;12.07;10.07;;;18.00;99.90;;;;;;4975345;28;20137;-86
2023/08/06 08:39:50;;;;;;;11.60;9.32;;;18.10;99.90;;;;;;4975861;28;20054;-86
2023/08/06 08:42:16;;;;;;;12.75;10.77;;;18.20;99.90;;;;;;4975583;28;20053;-86
2023/08/06 08:44:43;;;;;;;11.35;9.50;;;18.20;99.90;;;;;;4975399;28;20082;-85
2023/08/06 08:47:12;;;;;;;11.63;8.95;;;18.30;99.90;;;;;;4958859;28;20530;-86
2023/08/06 08:49:40;;;;;;;10.52;9.10;;;18.40;99.90;;;;;;4959141;28;20046;-87
2023/08/06 08:52:07;;;;;;;11.57;8.88;;;18.40;99.90;;;;;;4977064;28;20037;-86
2023/08/06 08:54:33;;;;;;;10.60;9.48;;;18.50;99.90;;;;;;4984729;28;20041;-86
2023/08/06 08:57:00;;;;;;;9.98;8.45;;;18.60;99.90;;;;;;4983013;28;20039;-87
2023/08/06 08:59:26;;;;;;;10.20;9.10;;;18.60;99.90;;;;;;4984613;28;20503;-81
2023/08/06 09:01:53;;;;;;;10.85;8.43;;;18.60;99.90;;;;;;4990156;28;20045;-86
2023/08/06 09:04:19;;;;;;;10.57;8.57;;;18.70;99.90;;;;;;4978321;28;20042;-86
2023/08/06 09:06:49;;;;;;;10.57;8.07;;;18.70;99.90;;;;;;4994341;28;20034;-86
2023/08/06 09:09:28;;;;;;;10.40;8.02;;;18.80;99.90;;;;;;4995436;28;20029;-85
2023/08/06 09:12:00;;;;;;;9.75;8.00;;;18.80;99.90;;;;;;4997828;28;20041;-85
2023/08/06 09:14:26;;;;;;;12.27;9.80;;;18.90;99.90;;;;;;4979347;28;20041;-85
2023/08/06 09:16:51;;;;;;;11.70;9.48;;;18.90;99.90;;;;;;4969996;28;20046;-86
2023/08/06 09:19:17;;;;;;;13.18;10.93;;;19.10;99.90;;;;;;4977908;28;20038;-86
2023/08/06 09:21:48;;;;;;;9.45;8.00;;;19.10;99.90;;;;;;4993952;28;20059;-86
2023/08/06 09:24:14;;;;;;;9.27;6.65;;;19.10;99.90;;;;;;4994538;28;20469;-86
2023/08/06 09:26:41;;;;;;;9.65;7.88;;;19.20;99.90;;;;;;4977544;28;20506;-86
2023/08/06 09:29:08;;;;;;;9.18;6.90;;;19.30;99.90;;;;;;4993816;28;20045;-86
2023/08/06 09:31:48;;;;;;;9.18;6.95;;;19.30;99.90;;;;;;4993603;28;20046;-86
2023/08/06 09:34:23;;;;;;;9.10;7.13;;;19.40;99.90;;;;;;4993043;28;20038;-86
2023/08/06 09:36:56;;;;;;;9.68;8.35;;;19.40;99.90;;;;;;4993739;28;20041;-86
2023/08/06 09:39:31;;;;;;;8.85;6.70;;;19.50;99.90;;;;;;4993844;28;20604;-86
2023/08/06 09:42:01;;;;;;;10.15;6.95;;;19.60;99.90;;;;;;4993031;28;20096;-86
2023/08/06 09:44:28;;;;;;;9.98;7.13;;;19.70;99.90;;;;;;4992925;28;20092;-86
2023/08/06 09:46:56;;;;;;;10.35;7.85;;;19.80;99.90;;;;;;4992984;28;20117;-87
2023/08/06 09:49:26;;;;;;;10.00;7.60;;;19.80;99.90;;;;;;4993650;28;20046;-86
2023/08/06 09:51:55;;;;;;;9.77;7.30;;;19.90;99.90;;;;;;4976946;28;20045;-86
2023/08/06 09:54:22;;;;;;;9.95;7.18;;;19.90;99.90;;;;;;4992327;28;20042;-86
2023/08/06 09:56:48;;;;;;;9.85;7.80;;;20.00;99.90;;;;;;4991370;28;20045;-87
2023/08/06 09:59:15;;;;;;;9.00;6.95;;;20.10;99.90;;;;;;4993097;28;20042;-86
2023/08/06 10:01:41;;;;;;;9.13;6.97;;;20.10;99.90;;;;;;4993257;28;20117;-86
2023/08/06 10:04:08;;;;;;;9.40;6.70;;;20.20;99.90;;;;;;4993626;28;20218;-87
2023/08/06 10:06:36;;;;;;;11.32;6.72;;;20.20;99.90;;;;;;4968042;28;20043;-87
2023/08/06 10:09:02;;;;;;;8.95;6.70;;;20.30;99.90;;;;;;4987507;28;20046;-87
2023/08/06 10:11:29;;;;;;;8.88;7.03;;;20.30;99.90;;;;;;4957636;28;20045;-87
2023/08/06 10:14:12;;;;;;;10.00;6.63;;;20.40;99.90;;;;;;4973241;28;20081;-87
2023/08/06 10:16:39;;;;;;;9.07;6.55;;;20.50;99.90;;;;;;4973339;28;20042;-87
2023/08/06 10:19:09;;;;;;;8.63;6.22;;;20.50;99.90;;;;;;4973071;28;20049;-87
2023/08/06 10:21:34;;;;;;;9.13;6.05;;;20.60;99.90;;;;;;4958237;28;20560;-87
2023/08/06 10:24:01;;;;;;;8.35;5.88;;;20.70;99.90;;;;;;4973763;28;20522;-87
2023/08/06 10:26:28;;;;;;;9.25;6.28;;;20.80;99.90;;;;;;4956446;28;20515;-87
2023/08/06 10:28:55;;;;;;;8.50;5.90;;;20.80;99.90;;;;;;4973212;28;20043;-87
2023/08/06 10:31:54;;;;;;;9.48;5.63;;;20.80;99.90;;;;;;4973412;28;20495;-86
2023/08/06 10:34:20;;;;;;;9.95;5.88;;;21.00;99.90;;;;;;4956648;28;20117;-86
2023/08/06 10:36:45;;;;;;;9.07;5.90;;;21.00;99.90;;;;;;4956972;28;20122;-86
2023/08/06 10:39:14;;;;;;;8.93;5.78;;;21.10;99.90;;;;;;4981939;28;20256;-86
2023/08/06 10:41:43;;;;;;;9.63;5.20;;;21.10;99.90;;;;;;4977207;28;20060;-86
2023/08/06 10:44:10;;;;;;;8.07;4.97;;;21.20;99.90;;;;;;4993351;28;20050;-86
2023/08/06 10:46:36;;;;;;;8.68;5.28;;;21.40;99.90;;;;;;4976497;28;20049;-86
2023/08/06 10:49:03;;;;;;;7.72;5.07;;;21.50;99.90;;;;;;4993192;28;20052;-86
2023/08/06 10:51:29;;;;;;;9.25;5.22;;;21.50;99.90;;;;;;4992886;28;20077;-86
2023/08/06 10:53:55;;;;;;;7.72;4.93;;;21.60;99.90;;;;;;4992159;28;20038;-86
2023/08/06 10:56:23;;;;;;;8.77;5.07;;;21.60;99.90;;;;;;4991863;28;20053;-86
2023/08/06 10:58:51;;;;;;;7.43;5.20;;;21.70;99.90;;;;;;4992422;28;20042;-86
2023/08/06 11:01:17;;;;;;;8.23;5.18;;;21.70;99.90;;;;;;5009698;28;20573;-87
2023/08/06 11:03:44;;;;;;;8.95;5.03;;;21.70;99.90;;;;;;4993373;28;20046;-86
2023/08/06 11:06:10;;;;;;;8.27;4.10;;;21.80;99.90;;;;;;4977188;28;20444;-87
2023/08/06 11:08:37;;;;;;;8.30;4.43;;;21.90;99.90;;;;;;4976775;28;20548;-86
2023/08/06 11:11:12;;;;;;;8.77;4.72;;;22.00;99.90;;;;;;4980681;28;20501;-86
2023/08/06 11:13:42;;;;;;;8.68;4.57;;;22.10;99.90;;;;;;4979582;28;20041;-86
2023/08/06 11:16:08;;;;;;;8.93;4.63;;;22.10;99.90;;;;;;4996039;28;20107;-86
2023/08/06 11:18:34;;;;;;;7.88;4.50;;;22.10;99.90;;;;;;4980297;28;20056;-86
2023/08/06 11:21:00;;;;;;;8.27;4.25;;;22.20;99.90;;;;;;4996727;28;20124;-86
2023/08/06 11:23:29;;;;;;;7.55;4.03;;;22.10;99.90;;;;;;4996421;28;20048;-86
2023/08/06 11:25:56;;;;;;;8.88;4.78;;;22.10;99.90;;;;;;4996377;28;20037;-86
2023/08/06 11:28:22;;;;;;;9.32;5.28;;;22.10;99.90;;;;;;4996163;28;20103;-86
2023/08/06 11:30:48;;;;;;;7.75;4.15;;;22.10;99.90;;;;;;4980315;28;20498;-86
2023/08/06 11:33:14;;;;;;;8.57;4.78;;;22.10;99.90;;;;;;4986016;28;20117;-86
2023/08/06 11:35:40;;;;;;;9.15;6.28;;;22.00;99.90;;;;;;4968802;28;20465;-86
2023/08/06 11:38:06;;;;;;;8.15;4.35;;;22.10;99.90;;;;;;4985154;28;20041;-86
2023/08/06 11:40:33;;;;;;;8.75;4.95;;;22.30;99.90;;;;;;4992854;28;20046;-86
2023/08/06 11:42:58;;;;;;;8.45;4.45;;;22.50;99.90;;;;;;4979590;28;20128;-87
2023/08/06 11:45:25;;;;;;;6.78;3.10;;;22.60;99.90;;;;;;4974637;28;20473;-86
2023/08/06 11:47:54;;;;;;;8.05;3.42;;;22.90;99.90;;;;;;4970608;28;20104;-87
2023/08/06 11:50:27;;;;;;;6.88;3.60;;;23.10;99.90;;;;;;4985881;28;20030;-86
2023/08/06 11:52:56;;;;;;;9.30;4.90;;;23.30;99.90;;;;;;4984407;28;20038;-86
2023/08/06 11:55:24;;;;;;;7.30;3.47;;;23.40;99.90;;;;;;4984540;28;20088;-87
2023/08/06 11:57:50;;;;;;;7.95;4.40;;;23.50;99.90;;;;;;4970282;28;20038;-87
2023/08/06 12:00:17;;;;;;;7.35;3.50;;;23.40;99.90;;;;;;4985410;28;20034;-87
2023/08/06 12:02:44;;;;;;;6.60;3.05;;;23.30;99.90;;;;;;4968874;28;20406;-87
2023/08/06 12:05:10;;;;;;;6.90;3.28;;;23.30;99.90;;;;;;4986464;28;20530;-87
2023/08/06 12:07:41;;;;;;;7.32;2.90;;;23.10;99.90;;;;;;4983849;28;20117;-86
2023/08/06 12:10:07;;;;;;;5.95;2.72;;;23.00;99.90;;;;;;4985523;28;20033;-86
2023/08/06 12:12:34;;;;;;;7.85;3.05;;;22.90;99.90;;;;;;4976562;28;20500;-86
2023/08/06 12:15:00;;;;;;;6.75;2.83;;;22.70;99.90;;;;;;4962451;28;20046;-87
2023/08/06 12:17:26;;;;;;;6.20;2.90;;;22.50;99.90;;;;;;4975407;28;20038;-86
2023/08/06 12:19:51;;;;;;;6.13;2.80;;;22.40;99.90;;;;;;4958325;28;20038;-86
2023/08/06 12:22:18;;;;;;;6.95;2.60;;;22.40;99.90;;;;;;4976144;28;20434;-87
2023/08/06 12:24:45;;;;;;;6.82;3.10;;;22.60;99.90;;;;;;4984910;28;20117;-87
2023/08/06 12:27:11;;;;;;;5.75;2.88;;;22.60;99.90;;;;;;5000660;28;20030;-86
2023/08/06 12:29:42;;;;;;;6.20;2.90;;;22.60;99.90;;;;;;4986200;28;20065;-86
2023/08/06 12:32:08;;;;;;;7.55;2.70;;;22.50;99.90;;;;;;4968774;28;20113;-87
2023/08/06 12:34:34;;;;;;;6.60;2.88;;;22.50;99.90;;;;;;4967205;28;20117;-87
2023/08/06 12:36:59;;;;;;;7.03;2.78;;;22.40;99.90;;;;;;4985307;28;20042;-87